Time;durP1;ratioP1;P1;durP2;ratioP2;P2;SDS_P1;SDS_P2;PMS_P1;PMS_P2;Temp;Humidity;BMP_temperature;BMP_pressure;BME280_temperature;BME280_humidity;BME280_pressure;Samples;Min_cycle;Max_cycle;Signal;HPM_P1;HPM_P2
2022/06/18 00:00:03;;;;;;;;;;;23.20;52.10;;;;;;5025869;28;20337;-68
2022/06/18 00:02:29;;;;;;;;;;;23.30;52.20;;;;;;5023589;28;19967;-67
2022/06/18 00:04:54;;;;;;;;;;;23.20;52.20;;;;;;5025329;28;19913;-68
2022/06/18 00:07:20;;;;;;;;;;;23.20;52.80;;;;;;5025218;28;19913;-68
2022/06/18 00:09:51;;;;;;;;;;;23.20;52.20;;;;;;5023943;28;19955;-68
2022/06/18 00:15:03;;;;;;;;;;;23.20;52.00;;;;;;5025571;28;19920;-67
2022/06/18 00:17:29;;;;;;;;;;;23.20;52.00;;;;;;5023611;28;19944;-67
2022/06/18 00:19:54;;;;;;;;;;;23.20;52.00;;;;;;5025146;28;20387;-67
2022/06/18 00:22:20;;;;;;;;;;;23.20;52.00;;;;;;5023127;28;19921;-67
2022/06/18 00:24:46;;;;;;;;;;;23.20;52.20;;;;;;5023651;28;19913;-67
2022/06/18 00:27:12;;;;;;;;;;;23.20;52.10;;;;;;5023835;28;19973;-68
2022/06/18 00:29:37;;;;;;;;;;;23.20;52.00;;;;;;5023431;28;20004;-68
2022/06/18 00:32:03;;;;;;;;;;;23.20;52.10;;;;;;5024817;28;20397;-68
2022/06/18 00:34:28;;;;;;;;;;;23.20;52.10;;;;;;5006620;28;19913;-67
2022/06/18 00:36:54;;;;;;;;;;;23.20;52.00;;;;;;5023423;28;20031;-67
2022/06/18 00:39:19;;;;;;;;;;;23.20;52.20;;;;;;5024497;28;19917;-68
2022/06/18 00:41:45;;;;;;;;;;;23.20;52.10;;;;;;5022389;28;19924;-67
2022/06/18 00:44:15;;;;;;;;;;;23.20;52.10;;;;;;5023114;28;19914;-67
2022/06/18 00:46:41;;;;;;;;;;;23.20;52.00;;;;;;5022627;28;19937;-68
2022/06/18 00:49:09;;;;;;;;;;;23.20;52.00;;;;;;5006963;28;19923;-67
2022/06/18 00:51:36;;;;;;;;;;;23.20;52.00;;;;;;5024478;28;19921;-67
2022/06/18 00:54:11;;;;;;;;;;;23.20;52.00;;;;;;5022735;28;20626;-67
2022/06/18 00:56:38;;;;;;;;;;;23.20;52.00;;;;;;5022567;28;21306;-68
2022/06/18 00:59:07;;;;;;;;;;;23.20;52.00;;;;;;5023384;28;19921;-67
2022/06/18 01:01:34;;;;;;;;;;;23.20;51.90;;;;;;5022968;28;19925;-68
2022/06/18 01:04:00;;;;;;;;;;;23.20;51.90;;;;;;5022692;28;20423;-68
2022/06/18 01:06:27;;;;;;;;;;;23.20;52.00;;;;;;5023066;28;20000;-68
2022/06/18 01:09:08;;;;;;;;;;;23.20;52.00;;;;;;5022571;28;20423;-67
2022/06/18 01:11:35;;;;;;;;;;;23.20;51.90;;;;;;5021883;28;21154;-67
2022/06/18 01:14:04;;;;;;;;;;;23.20;52.00;;;;;;5022824;28;19913;-67
2022/06/18 01:16:29;;;;;;;;;;;23.20;52.00;;;;;;5022599;28;19914;-67
2022/06/18 01:18:55;;;;;;;;;;;23.20;52.00;;;;;;5022799;28;19913;-67
2022/06/18 01:21:25;;;;;;;;;;;23.20;52.10;;;;;;5005996;28;22506;-66
2022/06/18 01:24:09;;;;;;;;;;;23.20;52.10;;;;;;5024220;28;19945;-67
2022/06/18 01:26:35;;;;;;;;;;;23.20;52.10;;;;;;5023572;28;20339;-67
2022/06/18 01:29:00;;;;;;;;;;;23.20;52.10;;;;;;5022739;28;19920;-68
2022/06/18 01:31:26;;;;;;;;;;;23.20;52.10;;;;;;5024066;28;19921;-67
2022/06/18 01:33:51;;;;;;;;;;;23.20;52.00;;;;;;5024298;28;19917;-67
2022/06/18 01:36:17;;;;;;;;;;;23.20;52.10;;;;;;5023725;28;20411;-67
2022/06/18 01:38:44;;;;;;;;;;;23.20;52.10;;;;;;5023844;28;19913;-67
2022/06/18 01:43:55;;;;;;;;;;;23.20;52.00;;;;;;5026345;28;19995;-67
2022/06/18 01:46:21;;;;;;;;;;;23.20;52.10;;;;;;5027608;28;19995;-67
2022/06/18 01:48:46;;;;;;;;;;;23.20;52.00;;;;;;5027203;28;19922;-68
2022/06/18 01:51:17;;;;;;;;;;;23.20;52.10;;;;;;5019377;28;21081;-67
2022/06/18 01:53:47;;;;;;;;;;;23.20;52.10;;;;;;5008157;28;19925;-70
2022/06/18 01:56:17;;;;;;;;;;;23.20;52.00;;;;;;5003784;28;19918;-68
2022/06/18 01:58:53;;;;;;;;;;;23.10;51.90;;;;;;5003783;28;20503;-67
2022/06/18 02:01:21;;;;;;;;;;;23.20;51.90;;;;;;5022687;28;20453;-67
2022/06/18 02:03:46;;;;;;;;;;;23.20;51.90;;;;;;5026077;28;19920;-67
2022/06/18 02:06:11;;;;;;;;;;;23.10;52.00;;;;;;5026572;28;19917;-67
2022/06/18 02:08:37;;;;;;;;;;;23.20;52.10;;;;;;5028124;28;20423;-67
2022/06/18 02:11:03;;;;;;;;;;;23.20;52.00;;;;;;5025408;28;22375;-67
2022/06/18 02:13:35;;;;;;;;;;;23.20;52.00;;;;;;5026120;28;19944;-67
2022/06/18 02:16:02;;;;;;;;;;;23.10;51.90;;;;;;5026228;28;19921;-67
2022/06/18 02:18:27;;;;;;;;;;;23.10;51.80;;;;;;5026319;28;19921;-67
2022/06/18 02:20:53;;;;;;;;;;;23.10;51.70;;;;;;5018943;28;19917;-67
2022/06/18 02:23:19;;;;;;;;;;;23.10;51.60;;;;;;5053156;28;19993;-68
2022/06/18 02:25:44;;;;;;;;;;;23.10;51.70;;;;;;5025291;28;19920;-67
2022/06/18 02:28:12;;;;;;;;;;;23.10;51.60;;;;;;5027459;28;19913;-68
2022/06/18 02:30:37;;;;;;;;;;;23.10;51.70;;;;;;5027382;28;20475;-68
2022/06/18 02:33:13;;;;;;;;;;;23.10;51.60;;;;;;5027126;28;19920;-68
2022/06/18 02:35:39;;;;;;;;;;;23.10;51.80;;;;;;5027869;28;20385;-68
2022/06/18 02:38:13;;;;;;;;;;;23.10;51.70;;;;;;5029483;28;19921;-68
2022/06/18 02:40:38;;;;;;;;;;;23.10;51.60;;;;;;5011104;28;19928;-68
2022/06/18 02:43:04;;;;;;;;;;;23.10;51.60;;;;;;5028175;28;20492;-68
2022/06/18 02:45:29;;;;;;;;;;;23.10;52.30;;;;;;5025897;28;19913;-68
2022/06/18 02:47:55;;;;;;;;;;;23.10;51.60;;;;;;5026134;28;19979;-69
2022/06/18 02:50:21;;;;;;;;;;;23.10;51.60;;;;;;5026812;28;19913;-68
2022/06/18 02:52:48;;;;;;;;;;;23.10;51.70;;;;;;5027189;28;19928;-68
2022/06/18 02:55:25;;;;;;;;;;;23.10;51.70;;;;;;5029620;28;19939;-67
2022/06/18 02:57:51;;;;;;;;;;;23.10;51.70;;;;;;5027562;28;19978;-68
2022/06/18 03:00:16;;;;;;;;;;;23.10;51.80;;;;;;5007853;28;20671;-68
2022/06/18 03:02:42;;;;;;;;;;;23.10;51.70;;;;;;5024877;28;19921;-68
2022/06/18 03:05:08;;;;;;;;;;;23.10;51.80;;;;;;5025587;28;19919;-68
2022/06/18 03:07:33;;;;;;;;;;;23.10;51.70;;;;;;5015644;28;19913;-67
2022/06/18 03:12:43;;;;;;;;;;;23.10;51.60;;;;;;5023377;28;19924;-68
2022/06/18 03:15:08;;;;;;;;;;;23.10;51.80;;;;;;5026238;28;20291;-68
2022/06/18 03:17:33;;;;;;;;;;;23.10;51.80;;;;;;5026641;28;20011;-68
2022/06/18 03:19:59;;;;;;;;;;;23.10;51.80;;;;;;5025993;28;19917;-68
2022/06/18 03:22:25;;;;;;;;;;;23.10;51.70;;;;;;5024567;28;19917;-68
2022/06/18 03:24:50;;;;;;;;;;;23.10;51.60;;;;;;5024809;28;20696;-68
2022/06/18 03:27:16;;;;;;;;;;;23.10;51.50;;;;;;5024604;28;20031;-68
2022/06/18 03:29:42;;;;;;;;;;;23.10;51.60;;;;;;5024478;28;19914;-66
2022/06/18 03:32:07;;;;;;;;;;;23.10;51.60;;;;;;5016290;28;19961;-68
2022/06/18 03:34:33;;;;;;;;;;;23.10;51.60;;;;;;5004346;28;19914;-68
2022/06/18 03:36:58;;;;;;;;;;;23.10;51.60;;;;;;5019658;28;19981;-68
2022/06/18 03:39:24;;;;;;;;;;;23.10;51.60;;;;;;5025812;28;19918;-68
2022/06/18 03:41:49;;;;;;;;;;;23.10;51.60;;;;;;5023648;28;19945;-68
2022/06/18 03:44:15;;;;;;;;;;;23.10;51.50;;;;;;5024348;28;19917;-68
2022/06/18 03:46:40;;;;;;;;;;;23.10;51.60;;;;;;5024200;28;20000;-68
2022/06/18 03:49:06;;;;;;;;;;;23.10;51.50;;;;;;5024740;28;19913;-68
2022/06/18 03:51:32;;;;;;;;;;;23.10;51.40;;;;;;5025265;28;19921;-68
2022/06/18 03:53:59;;;;;;;;;;;23.10;51.50;;;;;;5024150;28;20343;-68
2022/06/18 03:56:25;;;;;;;;;;;23.10;51.40;;;;;;5023992;28;19913;-68
2022/06/18 03:58:51;;;;;;;;;;;23.10;51.40;;;;;;5023967;28;19974;-66
2022/06/18 04:01:18;;;;;;;;;;;23.10;51.40;;;;;;5023665;28;20674;-68
2022/06/18 04:03:43;;;;;;;;;;;23.10;51.50;;;;;;5023748;28;19914;-68
2022/06/18 04:06:09;;;;;;;;;;;23.10;51.20;;;;;;5022094;28;19920;-68
2022/06/18 04:08:34;;;;;;;;;;;23.10;51.30;;;;;;5004989;28;19989;-68
2022/06/18 04:11:00;;;;;;;;;;;23.10;51.40;;;;;;5007667;28;19920;-68
2022/06/18 04:13:28;;;;;;;;;;;23.10;51.40;;;;;;5023891;28;19991;-68
2022/06/18 04:15:53;;;;;;;;;;;23.10;51.40;;;;;;5008157;28;20363;-68
2022/06/18 04:18:19;;;;;;;;;;;23.10;51.50;;;;;;5024662;28;19944;-67
2022/06/18 04:20:44;;;;;;;;;;;23.10;51.40;;;;;;5025089;28;19923;-66
2022/06/18 04:23:11;;;;;;;;;;;23.10;51.50;;;;;;5007601;28;20291;-68
2022/06/18 04:25:37;;;;;;;;;;;23.10;51.30;;;;;;5023918;28;20298;-68
2022/06/18 04:28:03;;;;;;;;;;;23.10;51.50;;;;;;5024784;28;21022;-67
2022/06/18 04:30:29;;;;;;;;;;;23.10;51.50;;;;;;5026105;28;19979;-67
2022/06/18 04:32:54;;;;;;;;;;;23.10;51.40;;;;;;5025794;28;19997;-68
2022/06/18 04:35:20;;;;;;;;;;;23.10;51.40;;;;;;5023231;28;20010;-68
2022/06/18 04:37:45;;;;;;;;;;;23.10;51.30;;;;;;5025534;28;19992;-67
2022/06/18 04:40:12;;;;;;;;;;;23.10;51.30;;;;;;5022962;28;19921;-68
2022/06/18 04:42:37;;;;;;;;;;;23.10;51.10;;;;;;5006596;28;19975;-68
2022/06/18 04:45:03;;;;;;;;;;;23.10;51.00;;;;;;5023917;28;19914;-68
2022/06/18 04:47:28;;;;;;;;;;;23.20;50.90;;;;;;5023369;28;19929;-68
2022/06/18 04:49:54;;;;;;;;;;;23.10;50.80;;;;;;5024379;28;20256;-68
2022/06/18 04:52:19;;;;;;;;;;;23.20;50.80;;;;;;5022693;28;19925;-68
2022/06/18 04:54:45;;;;;;;;;;;23.20;50.70;;;;;;5023981;28;20401;-68
2022/06/18 04:57:10;;;;;;;;;;;23.20;50.70;;;;;;5006574;28;19963;-68
2022/06/18 04:59:38;;;;;;;;;;;23.20;50.60;;;;;;5023247;28;19913;-68
2022/06/18 05:02:05;;;;;;;;;;;23.20;50.20;;;;;;5024361;28;19948;-67
2022/06/18 05:04:30;;;;;;;;;;;23.30;50.50;;;;;;5022838;28;19987;-67
2022/06/18 05:06:56;;;;;;;;;;;23.30;50.50;;;;;;5024569;28;20588;-68
2022/06/18 05:09:21;;;;;;;;;;;23.30;50.50;;;;;;5024404;28;20371;-68
2022/06/18 05:11:47;;;;;;;;;;;23.20;50.40;;;;;;5011544;28;19918;-68
2022/06/18 05:14:14;;;;;;;;;;;23.30;49.50;;;;;;5004265;28;19925;-68
2022/06/18 05:16:40;;;;;;;;;;;23.30;50.40;;;;;;5004807;28;20000;-68
2022/06/18 05:19:05;;;;;;;;;;;23.30;50.20;;;;;;5022306;28;19981;-68
2022/06/18 05:21:31;;;;;;;;;;;23.30;50.30;;;;;;5023777;28;20448;-68
2022/06/18 05:23:56;;;;;;;;;;;23.30;50.30;;;;;;5022348;28;19952;-69
2022/06/18 05:26:22;;;;;;;;;;;23.30;50.30;;;;;;5022623;28;19921;-68
2022/06/18 05:28:47;;;;;;;;;;;23.30;50.30;;;;;;5024168;28;19921;-68
2022/06/18 05:31:12;;;;;;;;;;;23.30;50.30;;;;;;5022014;28;19937;-68
2022/06/18 05:33:38;;;;;;;;;;;23.40;50.10;;;;;;5024207;28;19913;-67
2022/06/18 05:36:04;;;;;;;;;;;23.40;50.20;;;;;;5023348;28;19944;-67
2022/06/18 05:38:29;;;;;;;;;;;23.30;50.20;;;;;;5024922;28;20355;-68
2022/06/18 05:40:55;;;;;;;;;;;23.30;50.10;;;;;;5006736;28;19957;-68
2022/06/18 05:43:20;;;;;;;;;;;23.30;50.00;;;;;;5023455;28;19913;-67
2022/06/18 05:45:46;;;;;;;;;;;23.40;50.00;;;;;;5025758;28;20003;-68
2022/06/18 05:48:11;;;;;;;;;;;23.40;50.10;;;;;;5026149;28;19921;-68
2022/06/18 05:50:37;;;;;;;;;;;23.30;50.00;;;;;;5007435;28;20008;-67
2022/06/18 05:53:02;;;;;;;;;;;23.40;50.10;;;;;;5023016;28;20457;-68
2022/06/18 05:55:27;;;;;;;;;;;23.30;50.00;;;;;;5023673;28;19921;-68
2022/06/18 05:57:54;;;;;;;;;;;23.30;50.00;;;;;;5023526;28;19921;-68
2022/06/18 06:00:21;;;;;;;;;;;23.40;49.70;;;;;;5021353;28;20390;-68
2022/06/18 06:02:46;;;;;;;;;;;23.30;49.90;;;;;;5021670;28;19917;-68
2022/06/18 06:05:12;;;;;;;;;;;23.30;50.10;;;;;;5022275;28;20039;-68
2022/06/18 06:07:37;;;;;;;;;;;23.30;50.00;;;;;;5022198;28;19914;-68
2022/06/18 06:12:52;;;;;;;;;;;23.40;49.70;;;;;;5022206;28;19971;-67
2022/06/18 06:15:17;;;;;;;;;;;23.30;49.80;;;;;;5023356;28;19914;-68
2022/06/18 06:17:43;;;;;;;;;;;23.30;49.80;;;;;;5020370;28;19920;-67
2022/06/18 06:20:13;;;;;;;;;;;23.30;50.00;;;;;;5020081;28;20668;-67
2022/06/18 06:22:39;;;;;;;;;;;23.20;50.10;;;;;;5020450;28;21472;-67
2022/06/18 06:25:04;;;;;;;;;;;23.20;50.20;;;;;;5021392;28;19917;-67
2022/06/18 06:27:30;;;;;;;;;;;23.20;50.10;;;;;;5021445;28;20444;-67
2022/06/18 06:29:55;;;;;;;;;;;23.20;50.10;;;;;;5022740;28;19913;-65
2022/06/18 06:32:21;;;;;;;;;;;23.20;49.00;;;;;;5022559;28;19921;-66
2022/06/18 06:34:46;;;;;;;;;;;23.10;47.90;;;;;;5022880;28;19974;-67
2022/06/18 06:37:12;;;;;;;;;;;23.10;47.90;;;;;;5022769;28;19913;-67
2022/06/18 06:39:37;;;;;;;;;;;23.10;48.10;;;;;;5021619;28;19921;-67
2022/06/18 06:42:03;;;;;;;;;;;23.10;48.50;;;;;;5020495;28;19920;-69
2022/06/18 06:44:28;;;;;;;;;;;23.20;48.60;;;;;;5022695;28;19944;-67
2022/06/18 06:46:54;;;;;;;;;;;23.20;48.80;;;;;;5023476;28;19913;-68
2022/06/18 06:49:20;;;;;;;;;;;23.20;49.00;;;;;;5024697;28;19913;-69
2022/06/18 06:51:45;;;;;;;;;;;23.20;49.00;;;;;;5026641;28;20299;-68
2022/06/18 06:54:11;;;;;;;;;;;23.20;49.10;;;;;;5027191;28;19917;-69
2022/06/18 06:59:20;;;;;;;;;;;23.20;49.10;;;;;;5027720;28;19943;-68
2022/06/18 07:01:46;;;;;;;;;;;23.20;49.10;;;;;;5026919;28;19941;-68
2022/06/18 07:04:11;;;;;;;;;;;23.20;49.20;;;;;;5027529;28;19924;-69
2022/06/18 07:06:37;;;;;;;;;;;23.20;49.30;;;;;;5029091;28;19921;-68
2022/06/18 07:09:03;;;;;;;;;;;23.20;49.20;;;;;;5030563;28;20276;-68
2022/06/18 07:11:28;;;;;;;;;;;23.20;49.00;;;;;;5026014;28;19913;-69
2022/06/18 07:13:54;;;;;;;;;;;23.10;48.60;;;;;;5026079;28;19920;-68
2022/06/18 07:16:19;;;;;;;;;;;23.10;48.40;;;;;;5027266;28;19919;-69
2022/06/18 07:18:44;;;;;;;;;;;23.10;48.50;;;;;;5029123;28;20368;-67
2022/06/18 07:21:11;;;;;;;;;;;23.20;48.60;;;;;;5028480;28;19917;-69
2022/06/18 07:23:37;;;;;;;;;;;23.20;48.60;;;;;;5028734;28;20759;-68
2022/06/18 07:26:02;;;;;;;;;;;23.20;48.80;;;;;;5026867;28;19947;-69
2022/06/18 07:28:28;;;;;;;;;;;23.20;48.80;;;;;;5026377;28;20399;-69
2022/06/18 07:30:53;;;;;;;;;;;23.30;48.70;;;;;;5007706;28;19944;-67
2022/06/18 07:33:21;;;;;;;;;;;23.30;48.80;;;;;;5024562;28;19917;-69
2022/06/18 07:35:46;;;;;;;;;;;23.20;48.80;;;;;;5024584;28;19920;-69
2022/06/18 07:38:12;;;;;;;;;;;23.20;49.00;;;;;;5024264;28;19914;-69
2022/06/18 07:40:44;;;;;;;;;;;23.20;49.00;;;;;;5024694;28;20011;-68
2022/06/18 07:43:09;;;;;;;;;;;23.20;49.00;;;;;;5024410;28;20000;-68
2022/06/18 07:45:35;;;;;;;;;;;23.20;49.10;;;;;;5023915;28;20301;-67
2022/06/18 07:48:00;;;;;;;;;;;23.20;49.00;;;;;;5025674;28;19921;-67
2022/06/18 07:50:26;;;;;;;;;;;23.20;48.40;;;;;;5025634;28;20376;-69
2022/06/18 07:52:51;;;;;;;;;;;23.30;48.40;;;;;;5024072;28;19921;-68
2022/06/18 07:55:18;;;;;;;;;;;23.40;48.50;;;;;;5025749;28;19962;-68
2022/06/18 07:57:43;;;;;;;;;;;23.30;48.20;;;;;;5023752;28;19917;-67
2022/06/18 08:00:10;;;;;;;;;;;23.40;48.20;;;;;;5023755;28;19955;-67
2022/06/18 08:02:36;;;;;;;;;;;23.40;48.20;;;;;;5023488;28;19913;-66
2022/06/18 08:05:01;;;;;;;;;;;23.40;48.50;;;;;;5025166;28;19924;-67
2022/06/18 08:07:27;;;;;;;;;;;23.40;48.90;;;;;;5023749;28;20411;-67
2022/06/18 08:09:53;;;;;;;;;;;23.50;48.40;;;;;;5025327;28;19940;-68
2022/06/18 08:12:18;;;;;;;;;;;23.50;48.50;;;;;;5024680;28;20372;-68
2022/06/18 08:14:44;;;;;;;;;;;23.60;48.50;;;;;;5023774;28;19917;-68
2022/06/18 08:17:09;;;;;;;;;;;23.60;48.20;;;;;;5024295;28;19921;-68
2022/06/18 08:19:35;;;;;;;;;;;23.50;48.50;;;;;;5025304;28;19920;-68
2022/06/18 08:22:00;;;;;;;;;;;23.50;48.30;;;;;;5023314;28;20479;-68
2022/06/18 08:24:25;;;;;;;;;;;23.60;48.20;;;;;;5006900;28;19913;-67
2022/06/18 08:26:51;;;;;;;;;;;23.60;48.20;;;;;;5022979;28;19921;-70
2022/06/18 08:29:17;;;;;;;;;;;23.70;48.90;;;;;;5023377;28;20339;-68
2022/06/18 08:31:43;;;;;;;;;;;23.70;49.30;;;;;;5006804;28;19924;-68
2022/06/18 08:34:09;;;;;;;;;;;23.70;48.90;;;;;;5025160;28;20576;-68
2022/06/18 08:36:34;;;;;;;;;;;23.80;48.60;;;;;;5025074;28;19924;-68
2022/06/18 08:38:59;;;;;;;;;;;23.80;49.40;;;;;;5024021;28;19913;-68
2022/06/18 08:41:34;;;;;;;;;;;23.90;49.60;;;;;;5023418;28;20026;-68
2022/06/18 08:44:18;;;;;;;;;;;23.90;50.60;;;;;;5007170;28;19924;-66
2022/06/18 08:46:43;;;;;;;;;;;24.00;50.60;;;;;;5024372;28;19913;-67
2022/06/18 08:49:11;;;;;;;;;;;24.10;51.50;;;;;;5024493;28;19917;-67
2022/06/18 08:51:55;;;;;;;;;;;24.00;50.40;;;;;;5024126;28;19921;-67
2022/06/18 08:54:21;;;;;;;;;;;23.90;50.20;;;;;;5023826;28;19917;-67
2022/06/18 08:56:47;;;;;;;;;;;23.90;50.20;;;;;;5024058;28;19917;-67
2022/06/18 08:59:22;;;;;;;;;;;23.90;49.80;;;;;;5022956;28;20008;-68
2022/06/18 09:02:13;;;;;;;;;;;23.90;49.60;;;;;;5023779;28;20361;-67
2022/06/18 09:04:45;;;;;;;;;;;23.90;49.60;;;;;;5004993;28;20398;-67
2022/06/18 09:07:13;;;;;;;;;;;23.90;49.50;;;;;;5023135;28;19913;-63
2022/06/18 09:09:50;;;;;;;;;;;23.80;49.40;;;;;;5024215;28;19921;-67
2022/06/18 09:12:23;;;;;;;;;;;23.80;49.10;;;;;;5023373;28;19920;-67
2022/06/18 09:14:49;;;;;;;;;;;23.80;48.80;;;;;;5022232;28;19920;-67
2022/06/18 09:17:16;;;;;;;;;;;23.80;48.80;;;;;;5023684;28;19917;-67
2022/06/18 09:19:42;;;;;;;;;;;23.80;49.10;;;;;;5023139;22;20591;-68
2022/06/18 09:22:10;;;;;;;;;;;23.80;48.80;;;;;;5002328;28;19947;-66
2022/06/18 09:24:42;;;;;;;;;;;23.80;48.90;;;;;;5018016;28;19920;-67
2022/06/18 09:27:08;;;;;;;;;;;23.80;49.10;;;;;;5003157;28;21692;-67
2022/06/18 09:29:52;;;;;;;;;;;23.80;49.20;;;;;;5019372;28;19968;-67
2022/06/18 09:32:20;;;;;;;;;;;23.80;49.30;;;;;;5003608;28;19920;-67
2022/06/18 09:34:50;;;;;;;;;;;23.80;49.00;;;;;;4986344;28;19914;-67
2022/06/18 09:37:16;;;;;;;;;;;23.80;49.30;;;;;;5002609;28;19917;-67
2022/06/18 09:39:43;;;;;;;;;;;23.80;49.10;;;;;;4985209;28;19921;-67
2022/06/18 09:42:11;;;;;;;;;;;23.80;49.20;;;;;;4989365;28;20554;-67
2022/06/18 09:44:45;;;;;;;;;;;23.90;49.00;;;;;;4983150;28;19914;-68
2022/06/18 09:47:19;;;;;;;;;;;23.90;49.30;;;;;;4992451;28;19918;-68
2022/06/18 09:49:45;;;;;;;;;;;23.90;49.60;;;;;;5002444;28;20114;-66
2022/06/18 09:52:14;;;;;;;;;;;23.90;49.80;;;;;;5004239;28;20391;-67
2022/06/18 09:54:42;;;;;;;;;;;24.00;48.80;;;;;;5002596;28;19914;-66
2022/06/18 09:57:08;;;;;;;;;;;24.00;49.50;;;;;;5002192;28;19921;-67
2022/06/18 09:59:36;;;;;;;;;;;24.00;49.50;;;;;;5002349;28;19922;-67
2022/06/18 10:02:01;;;;;;;;;;;24.00;49.40;;;;;;5002383;28;20314;-68
2022/06/18 10:07:18;;;;;;;;;;;24.00;49.10;;;;;;5003547;28;19920;-68
2022/06/18 10:09:45;;;;;;;;;;;24.10;48.90;;;;;;5002326;28;19914;-68
2022/06/18 10:12:24;;;;;;;;;;;24.20;48.30;;;;;;5002641;28;19979;-68
2022/06/18 10:14:56;;;;;;;;;;;24.20;48.30;;;;;;5003042;28;19914;-67
2022/06/18 10:17:22;;;;;;;;;;;24.20;48.00;;;;;;5003745;28;19936;-67
2022/06/18 10:19:56;;;;;;;;;;;24.20;47.50;;;;;;5002850;28;19925;-68
2022/06/18 10:22:24;;;;;;;;;;;24.20;47.60;;;;;;5004020;28;19921;-67
2022/06/18 10:24:52;;;;;;;;;;;24.30;47.10;;;;;;5005907;28;19959;-67
2022/06/18 10:27:28;;;;;;;;;;;24.40;46.80;;;;;;5005408;28;19933;-67
2022/06/18 10:30:05;;;;;;;;;;;24.40;46.90;;;;;;5005492;28;19913;-67
2022/06/18 10:32:42;;;;;;;;;;;24.40;46.90;;;;;;5006657;28;19948;-67
2022/06/18 10:35:11;;;;;;;;;;;24.50;47.10;;;;;;5007350;28;19914;-68
2022/06/18 10:37:41;;;;;;;;;;;24.40;47.20;;;;;;5007235;28;20381;-67
2022/06/18 10:40:21;;;;;;;;;;;24.40;46.90;;;;;;5007458;28;19921;-67
2022/06/18 10:42:47;;;;;;;;;;;24.50;46.70;;;;;;5006512;28;20004;-67
2022/06/18 10:45:34;;;;;;;;;;;24.50;46.70;;;;;;5007175;28;20593;-67
2022/06/18 10:48:00;;;;;;;;;;;24.50;46.30;;;;;;5005826;28;20434;-67
2022/06/18 10:50:25;;;;;;;;;;;24.40;46.70;;;;;;5006872;28;19917;-67
2022/06/18 10:52:58;;;;;;;;;;;24.50;46.20;;;;;;5004980;28;20303;-67
2022/06/18 10:55:23;;;;;;;;;;;24.50;45.70;;;;;;5005061;28;19917;-67
2022/06/18 10:57:49;;;;;;;;;;;24.60;45.60;;;;;;5006637;28;19960;-67
2022/06/18 11:00:15;;;;;;;;;;;24.60;45.90;;;;;;5006748;28;20454;-67
2022/06/18 11:02:41;;;;;;;;;;;24.60;45.50;;;;;;5005227;28;19913;-68
2022/06/18 11:05:25;;;;;;;;;;;24.60;46.10;;;;;;5005444;28;20399;-67
2022/06/18 11:07:52;;;;;;;;;;;24.60;45.70;;;;;;5006406;28;19914;-67
2022/06/18 11:10:43;;;;;;;;;;;24.60;46.30;;;;;;5006674;28;19917;-67
2022/06/18 11:13:24;;;;;;;;;;;24.50;46.30;;;;;;4997584;28;20444;-67
2022/06/18 11:16:01;;;;;;;;;;;24.60;45.40;;;;;;5005565;28;21788;-67
2022/06/18 11:18:26;;;;;;;;;;;24.70;45.70;;;;;;5005091;28;19937;-66
2022/06/18 11:20:56;;;;;;;;;;;24.70;46.00;;;;;;5004553;28;19922;-67
2022/06/18 11:23:22;;;;;;;;;;;24.60;45.90;;;;;;5004846;28;19913;-67
2022/06/18 11:25:51;;;;;;;;;;;24.60;45.40;;;;;;5006342;28;20307;-67
2022/06/18 11:28:33;;;;;;;;;;;24.60;45.60;;;;;;5004764;28;19921;-67
2022/06/18 11:30:59;;;;;;;;;;;24.70;45.30;;;;;;5006220;28;20486;-67
2022/06/18 11:33:27;;;;;;;;;;;24.80;45.50;;;;;;5005602;28;19921;-67
2022/06/18 11:35:53;;;;;;;;;;;24.90;45.20;;;;;;5005079;28;19913;-67
2022/06/18 11:38:28;;;;;;;;;;;24.90;45.20;;;;;;5006109;28;20586;-68
2022/06/18 11:40:54;;;;;;;;;;;24.90;45.40;;;;;;5006869;28;19968;-67
2022/06/18 11:43:35;;;;;;;;;;;24.90;45.30;;;;;;5005656;28;19921;-68
2022/06/18 11:46:02;;;;;;;;;;;25.00;45.30;;;;;;5006917;28;20297;-67
2022/06/18 11:48:40;;;;;;;;;;;25.00;45.20;;;;;;5005951;28;20457;-68
2022/06/18 11:51:11;;;;;;;;;;;24.90;45.60;;;;;;5007229;28;20458;-67
2022/06/18 11:53:41;;;;;;;;;;;24.90;45.20;;;;;;5009482;28;19921;-66
2022/06/18 11:56:11;;;;;;;;;;;25.00;45.10;;;;;;5007919;28;19914;-68
2022/06/18 11:58:43;;;;;;;;;;;25.00;45.30;;;;;;5006730;28;20645;-66
2022/06/18 12:01:14;;;;;;;;;;;24.90;45.60;;;;;;4984798;28;19918;-68
2022/06/18 12:03:43;;;;;;;;;;;24.90;45.30;;;;;;4983035;28;21832;-68
2022/06/18 12:06:12;;;;;;;;;;;25.00;45.30;;;;;;5002672;28;20590;-68
2022/06/18 12:08:38;;;;;;;;;;;25.00;45.70;;;;;;5004423;28;19917;-69
2022/06/18 12:11:10;;;;;;;;;;;25.10;45.60;;;;;;5004119;28;19914;-69
2022/06/18 12:13:38;;;;;;;;;;;25.20;45.00;;;;;;4996774;28;19921;-67
2022/06/18 12:16:13;;;;;;;;;;;25.20;44.90;;;;;;5004374;28;19921;-67
2022/06/18 12:18:49;;;;;;;;;;;25.20;45.40;;;;;;4999471;28;20011;-68
2022/06/18 12:21:26;;;;;;;;;;;25.20;44.80;;;;;;4974822;28;19926;-68
2022/06/18 12:23:55;;;;;;;;;;;25.30;44.30;;;;;;4965554;28;19993;-69
2022/06/18 12:26:27;;;;;;;;;;;25.30;44.80;;;;;;5003747;28;19913;-68
2022/06/18 12:29:08;;;;;;;;;;;25.30;45.10;;;;;;5001729;28;19976;-68
2022/06/18 12:31:34;;;;;;;;;;;25.30;45.20;;;;;;4947665;28;21224;-68
2022/06/18 12:34:01;;;;;;;;;;;25.30;45.10;;;;;;4964891;28;19920;-68
2022/06/18 12:36:36;;;;;;;;;;;25.30;45.00;;;;;;5003488;28;19959;-68
2022/06/18 12:39:11;;;;;;;;;;;25.40;45.00;;;;;;4996407;28;20527;-69
2022/06/18 12:41:39;;;;;;;;;;;25.40;44.90;;;;;;4964336;28;19929;-67
2022/06/18 12:44:27;;;;;;;;;;;25.40;44.80;;;;;;4964219;28;19949;-67
2022/06/18 12:47:11;;;;;;;;;;;25.40;44.80;;;;;;4980786;28;20578;-69
2022/06/18 12:49:59;;;;;;;;;;;25.50;44.90;;;;;;4969175;28;20048;-69
2022/06/18 12:52:43;;;;;;;;;;;25.50;44.70;;;;;;5003011;28;19920;-70
2022/06/18 12:55:17;;;;;;;;;;;25.50;44.60;;;;;;5000535;28;20009;-68
2022/06/18 12:57:42;;;;;;;;;;;25.50;44.90;;;;;;5003693;28;20135;-70
2022/06/18 13:00:26;;;;;;;;;;;25.50;45.30;;;;;;5003349;28;19914;-69
2022/06/18 13:03:08;;;;;;;;;;;25.50;45.00;;;;;;5005321;28;19917;-68
2022/06/18 13:05:43;;;;;;;;;;;25.50;45.00;;;;;;5002869;28;19929;-69
2022/06/18 13:08:21;;;;;;;;;;;25.50;45.40;;;;;;5004559;28;19963;-69
2022/06/18 13:13:56;;;;;;;;;;;25.40;46.10;;;;;;4999759;28;19928;-68
2022/06/18 13:16:40;;;;;;;;;;;25.40;46.00;;;;;;5002712;28;20451;-68
2022/06/18 13:19:07;;;;;;;;;;;25.50;45.70;;;;;;4991363;28;20602;-68
2022/06/18 13:21:33;;;;;;;;;;;25.50;45.00;;;;;;5010777;28;20427;-68
2022/06/18 13:29:52;;;;;;;;;;;25.50;47.40;;;;;;5003724;28;19940;-69
2022/06/18 13:32:23;;;;;;;;;;;25.60;48.90;;;;;;5001284;28;20126;-68
2022/06/18 13:35:00;;;;;;;;;;;25.70;47.80;;;;;;5002879;28;20000;-66
2022/06/18 13:38:04;;;;;;;;;;;25.70;48.70;;;;;;5002436;28;20552;-65
2022/06/18 13:40:39;;;;;;;;;;;25.80;46.20;;;;;;4948133;28;19918;-68
2022/06/18 13:43:33;;;;;;;;;;;25.90;45.90;;;;;;4961318;28;20446;-68
2022/06/18 13:46:20;;;;;;;;;;;25.90;46.80;;;;;;4959303;28;19914;-68
2022/06/18 13:48:54;;;;;;;;;;;25.70;46.80;;;;;;5002043;28;20314;-68
2022/06/18 13:51:30;;;;;;;;;;;25.80;46.20;;;;;;5003450;28;19989;-66
2022/06/18 13:54:12;;;;;;;;;;;25.80;46.50;;;;;;5003282;28;19953;-68
2022/06/18 13:56:39;;;;;;;;;;;25.70;47.30;;;;;;5002838;28;19997;-68
2022/06/18 13:59:04;;;;;;;;;;;25.70;47.70;;;;;;4984626;28;19952;-67
2022/06/18 14:01:42;;;;;;;;;;;25.70;47.50;;;;;;5005016;28;20402;-67
2022/06/18 14:04:16;;;;;;;;;;;25.60;47.40;;;;;;5003554;28;19967;-68
2022/06/18 14:06:46;;;;;;;;;;;25.60;47.60;;;;;;5003803;28;19959;-68
2022/06/18 14:09:12;;;;;;;;;;;25.60;47.80;;;;;;5002386;28;19918;-67
2022/06/18 14:11:40;;;;;;;;;;;25.60;47.90;;;;;;5001511;28;19920;-68
2022/06/18 14:14:07;;;;;;;;;;;25.60;47.90;;;;;;5002416;28;20379;-67
2022/06/18 14:16:32;;;;;;;;;;;25.60;48.00;;;;;;5004014;28;20505;-68
2022/06/18 14:19:24;;;;;;;;;;;25.60;48.10;;;;;;4992499;28;19968;-68
2022/06/18 14:21:58;;;;;;;;;;;25.60;48.40;;;;;;4999908;28;20000;-67
2022/06/18 14:24:24;;;;;;;;;;;25.60;48.30;;;;;;4987022;28;19963;-68
2022/06/18 14:26:50;;;;;;;;;;;25.60;48.30;;;;;;5011571;28;19917;-67
2022/06/18 14:29:16;;;;;;;;;;;25.60;48.40;;;;;;5003958;28;20436;-67
2022/06/18 14:31:45;;;;;;;;;;;25.60;48.80;;;;;;5001550;28;20040;-68
2022/06/18 14:34:26;;;;;;;;;;;25.60;48.70;;;;;;5002443;28;19920;-68
2022/06/18 14:36:51;;;;;;;;;;;25.70;48.90;;;;;;5004910;28;19929;-68
2022/06/18 14:39:21;;;;;;;;;;;25.60;49.00;;;;;;5006421;28;19918;-68
2022/06/18 14:41:48;;;;;;;;;;;25.70;49.40;;;;;;5006516;28;19925;-68
2022/06/18 14:44:23;;;;;;;;;;;25.70;50.00;;;;;;4994562;28;19917;-74
2022/06/18 14:46:56;;;;;;;;;;;25.70;51.40;;;;;;5009886;28;20359;-71
2022/06/18 14:49:44;;;;;;;;;;;25.70;52.00;;;;;;5004597;28;19937;-75